Time;durP1;ratioP1;P1;durP2;ratioP2;P2;SDS_P1;SDS_P2;PMS_P1;PMS_P2;Temp;Humidity;BMP_temperature;BMP_pressure;BME280_temperature;BME280_humidity;BME280_pressure;Samples;Min_cycle;Max_cycle;Signal;HPM_P1;HPM_P2
2022/01/20 00:00:31;;;;;;;6.53;1.40;;;;;;;;;;5070660;28;20395;-76
2022/01/20 00:03:00;;;;;;;10.68;1.17;;;;;;;;;;5070957;28;20395;-77
2022/01/20 00:08:26;;;;;;;16.42;1.50;;;;;;;;;;5071089;28;20063;-77
2022/01/20 00:27:22;;;;;;;9.80;1.05;;;;;;;;;;5055748;28;20094;-77
2022/01/20 00:30:12;;;;;;;10.25;1.40;;;;;;;;;;5069181;28;20052;-77
2022/01/20 00:37:27;;;;;;;12.18;1.30;;;;;;;;;;5070748;28;20489;-77
2022/01/20 00:39:54;;;;;;;11.25;1.40;;;;;;;;;;5053059;28;20037;-76
2022/01/20 00:42:20;;;;;;;11.45;1.55;;;;;;;;;;5070045;28;20080;-77
2022/01/20 00:44:47;;;;;;;9.18;1.30;;;;;;;;;;5070373;28;20044;-77
2022/01/20 00:47:13;;;;;;;17.73;1.17;;;;;;;;;;5070071;28;20040;-77
2022/01/20 00:49:40;;;;;;;15.10;1.67;;;;;;;;;;5069828;28;20048;-77
2022/01/20 00:52:06;;;;;;;20.92;2.95;;;;;;;;;;5068950;28;20065;-77
2022/01/20 00:54:32;;;;;;;15.65;1.60;;;;;;;;;;5053213;28;20458;-77
2022/01/20 00:56:58;;;;;;;17.10;1.75;;;;;;;;;;5053339;28;20036;-78
2022/01/20 00:59:26;;;;;;;13.05;1.52;;;;;;;;;;5069791;28;20384;-77
2022/01/20 01:01:52;;;;;;;10.65;1.40;;;;;;;;;;5053533;28;20044;-77
2022/01/20 01:04:18;;;;;;;15.27;1.60;;;;;;;;;;5069612;28;20044;-78
2022/01/20 01:09:10;;;;;;;9.98;0.90;;;;;;;;;;5069173;28;20135;-78
2022/01/20 01:11:38;;;;;;;7.80;1.08;;;;;;;;;;5069684;28;20048;-78
2022/01/20 01:14:05;;;;;;;4.68;0.70;;;;;;;;;;5052432;28;20040;-78
2022/01/20 01:19:50;;;;;;;5.57;0.50;;;;;;;;;;5052829;28;20045;-77
2022/01/20 01:24:41;;;;;;;5.88;0.60;;;;;;;;;;5069553;28;20470;-77
2022/01/20 01:27:08;;;;;;;4.65;0.77;;;;;;;;;;5069039;28;20041;-77
2022/01/20 01:32:06;;;;;;;8.25;0.82;;;;;;;;;;5068633;28;20044;-78
2022/01/20 01:34:35;;;;;;;7.55;0.80;;;;;;;;;;5069572;28;20051;-78
2022/01/20 01:39:27;;;;;;;10.77;1.05;;;;;;;;;;5068998;28;20040;-78
2022/01/20 01:41:55;;;;;;;8.63;0.90;;;;;;;;;;5068202;28;20044;-78
2022/01/20 01:44:27;;;;;;;7.32;0.88;;;;;;;;;;5068567;28;20050;-78
2022/01/20 01:46:54;;;;;;;10.75;0.80;;;;;;;;;;5069230;28;20060;-77
2022/01/20 01:49:21;;;;;;;8.73;0.90;;;;;;;;;;5070037;28;20043;-78
2022/01/20 01:51:47;;;;;;;7.45;0.80;;;;;;;;;;5068962;28;20086;-78
2022/01/20 01:54:15;;;;;;;9.73;1.00;;;;;;;;;;5068392;28;20066;-78
2022/01/20 01:56:41;;;;;;;7.05;0.90;;;;;;;;;;5053024;28;20041;-78
2022/01/20 01:59:08;;;;;;;7.07;0.75;;;;;;;;;;5048555;28;20616;-77
2022/01/20 02:01:36;;;;;;;8.30;1.00;;;;;;;;;;5048380;28;20037;-78
2022/01/20 02:04:13;;;;;;;9.57;1.30;;;;;;;;;;5048291;28;20140;-77
2022/01/20 02:20:00;;;;;;;4.43;0.80;;;;;;;;;;5082023;28;20044;-77
2022/01/20 02:22:26;;;;;;;3.55;0.70;;;;;;;;;;5064755;28;20041;-77
2022/01/20 02:24:52;;;;;;;6.85;0.70;;;;;;;;;;5048715;28;20087;-77
2022/01/20 02:27:19;;;;;;;5.38;1.08;;;;;;;;;;5048295;28;20048;-77
2022/01/20 02:29:45;;;;;;;4.00;0.63;;;;;;;;;;5048284;28;20040;-77
2022/01/20 02:32:12;;;;;;;7.32;0.85;;;;;;;;;;5061559;28;20522;-77
2022/01/20 02:34:38;;;;;;;5.18;0.80;;;;;;;;;;5069627;28;20051;-78
2022/01/20 02:37:09;;;;;;;5.82;0.88;;;;;;;;;;5067759;28;20155;-77
2022/01/20 02:44:53;;;;;;;8.23;1.55;;;;;;;;;;5067776;28;20045;-77
2022/01/20 02:47:20;;;;;;;13.35;1.35;;;;;;;;;;5051565;28;20102;-77
2022/01/20 02:49:47;;;;;;;5.60;1.10;;;;;;;;;;5068245;28;20040;-77
2022/01/20 02:52:13;;;;;;;8.38;1.10;;;;;;;;;;5068348;28;20101;-77
2022/01/20 02:54:39;;;;;;;10.15;1.30;;;;;;;;;;5068087;28;20046;-78
2022/01/20 02:57:05;;;;;;;10.18;1.38;;;;;;;;;;5067852;28;20048;-78
2022/01/20 02:59:34;;;;;;;11.38;1.75;;;;;;;;;;5051037;28;20140;-77
2022/01/20 03:02:00;;;;;;;10.77;1.15;;;;;;;;;;5062810;28;20555;-77
2022/01/20 03:04:26;;;;;;;8.93;1.13;;;;;;;;;;5067033;28;20094;-78
2022/01/20 03:06:53;;;;;;;7.65;1.00;;;;;;;;;;5066839;28;20467;-77
2022/01/20 03:09:19;;;;;;;6.70;0.93;;;;;;;;;;5067573;28;20170;-77
2022/01/20 03:11:46;;;;;;;9.50;1.27;;;;;;;;;;5067847;28;20048;-77
2022/01/20 03:14:14;;;;;;;14.25;1.30;;;;;;;;;;5067383;28;20527;-77
2022/01/20 03:16:40;;;;;;;14.65;2.33;;;;;;;;;;5067498;28;20040;-77
2022/01/20 03:19:06;;;;;;;11.48;1.48;;;;;;;;;;5051003;28;20036;-77
2022/01/20 03:21:32;;;;;;;16.55;2.85;;;;;;;;;;5067494;28;20044;-77
2022/01/20 03:23:58;;;;;;;12.30;1.70;;;;;;;;;;5051279;28;20044;-77
2022/01/20 03:26:24;;;;;;;12.07;1.70;;;;;;;;;;5050704;28;20052;-77
2022/01/20 03:28:50;;;;;;;16.15;2.00;;;;;;;;;;5067880;28;20503;-77
2022/01/20 03:31:17;;;;;;;19.00;2.33;;;;;;;;;;5067172;28;20079;-77
2022/01/20 03:33:43;;;;;;;19.73;1.92;;;;;;;;;;5068705;28;20527;-77
2022/01/20 03:36:09;;;;;;;20.83;2.10;;;;;;;;;;5067331;28;20045;-77
2022/01/20 03:38:35;;;;;;;19.90;2.50;;;;;;;;;;5067491;28;20037;-78
2022/01/20 03:41:01;;;;;;;11.88;2.03;;;;;;;;;;5067276;28;20079;-77
2022/01/20 03:43:27;;;;;;;20.65;2.30;;;;;;;;;;5067385;28;20148;-77
2022/01/20 03:45:56;;;;;;;20.42;3.10;;;;;;;;;;5068556;28;20041;-77
2022/01/20 03:48:25;;;;;;;15.57;2.15;;;;;;;;;;5068191;28;20567;-77
2022/01/20 03:51:00;;;;;;;14.93;2.33;;;;;;;;;;5067566;28;20056;-77
2022/01/20 03:53:28;;;;;;;15.75;1.77;;;;;;;;;;5067344;28;20124;-78
2022/01/20 03:55:54;;;;;;;19.48;2.45;;;;;;;;;;5067542;28;20049;-77
2022/01/20 03:58:20;;;;;;;22.40;3.35;;;;;;;;;;5067157;28;20511;-77
2022/01/20 04:00:46;;;;;;;17.70;2.40;;;;;;;;;;5067384;28;20044;-77
2022/01/20 04:03:13;;;;;;;19.80;2.45;;;;;;;;;;5066867;28;20067;-77
2022/01/20 04:05:55;;;;;;;14.88;2.35;;;;;;;;;;5069371;28;20063;-77
2022/01/20 04:08:21;;;;;;;20.80;2.85;;;;;;;;;;5053171;28;20113;-77
2022/01/20 04:10:47;;;;;;;20.58;2.80;;;;;;;;;;5071001;28;20150;-77
2022/01/20 04:13:14;;;;;;;15.32;1.98;;;;;;;;;;5053479;28;20097;-77
2022/01/20 04:15:41;;;;;;;18.25;2.78;;;;;;;;;;5070726;28;20512;-77
2022/01/20 04:18:19;;;;;;;18.38;2.50;;;;;;;;;;5070303;28;20078;-77
2022/01/20 04:20:45;;;;;;;19.92;2.35;;;;;;;;;;5070235;28;20052;-77
2022/01/20 04:23:11;;;;;;;21.63;2.75;;;;;;;;;;5070035;28;20076;-76
2022/01/20 04:25:38;;;;;;;12.20;2.20;;;;;;;;;;5070442;28;20052;-77
2022/01/20 04:28:04;;;;;;;13.43;1.95;;;;;;;;;;5053500;28;20052;-77
2022/01/20 04:30:30;;;;;;;19.80;2.53;;;;;;;;;;5070847;28;20182;-77
2022/01/20 04:32:56;;;;;;;12.60;2.17;;;;;;;;;;5071841;28;20090;-77
2022/01/20 04:35:22;;;;;;;12.32;2.03;;;;;;;;;;5069798;28;20488;-78
2022/01/20 04:37:50;;;;;;;20.45;2.78;;;;;;;;;;5070376;28;20054;-77
2022/01/20 04:40:16;;;;;;;14.48;2.00;;;;;;;;;;5053066;28;20032;-78
2022/01/20 04:42:45;;;;;;;16.73;2.03;;;;;;;;;;5070834;28;20611;-77
2022/01/20 04:45:15;;;;;;;11.82;1.50;;;;;;;;;;5069800;28;20118;-77
2022/01/20 04:58:24;;;;;;;11.93;1.42;;;;;;;;;;5069362;28;20501;-77
2022/01/20 05:00:50;;;;;;;9.98;1.48;;;;;;;;;;5067791;28;20465;-77
2022/01/20 05:03:16;;;;;;;9.10;1.30;;;;;;;;;;5066867;28;20033;-77
2022/01/20 05:05:43;;;;;;;7.40;1.40;;;;;;;;;;5068713;28;20083;-78
2022/01/20 05:08:09;;;;;;;10.73;1.63;;;;;;;;;;5068838;28;20055;-78
2022/01/20 05:10:35;;;;;;;13.23;1.95;;;;;;;;;;5070036;28;20566;-78
2022/01/20 05:13:10;;;;;;;13.30;1.70;;;;;;;;;;5053053;28;20040;-77
2022/01/20 05:15:36;;;;;;;11.43;1.73;;;;;;;;;;5068685;28;20052;-77
2022/01/20 05:18:02;;;;;;;17.77;1.95;;;;;;;;;;5069657;28;20565;-77
2022/01/20 05:20:28;;;;;;;15.02;1.80;;;;;;;;;;5068879;28;20115;-78
2022/01/20 05:22:55;;;;;;;14.18;1.70;;;;;;;;;;5069427;28;20047;-77
2022/01/20 05:25:21;;;;;;;12.73;1.60;;;;;;;;;;5069327;28;20484;-77
2022/01/20 05:27:47;;;;;;;14.25;1.90;;;;;;;;;;5069492;28;20044;-77
2022/01/20 05:30:13;;;;;;;14.23;2.10;;;;;;;;;;5052272;28;20040;-77
2022/01/20 05:32:39;;;;;;;15.77;2.25;;;;;;;;;;5052839;28;20048;-77
2022/01/20 05:35:05;;;;;;;12.27;2.00;;;;;;;;;;5052477;28;20048;-77
2022/01/20 05:37:32;;;;;;;13.55;2.28;;;;;;;;;;5069271;28;20106;-77
2022/01/20 05:39:58;;;;;;;17.45;2.08;;;;;;;;;;5035922;28;20040;-77
2022/01/20 05:42:24;;;;;;;14.90;2.08;;;;;;;;;;5052147;28;20040;-77
2022/01/20 05:44:51;;;;;;;16.80;1.73;;;;;;;;;;5052451;28;20047;-78
2022/01/20 05:47:25;;;;;;;12.20;1.65;;;;;;;;;;5051827;28;20048;-78
2022/01/20 05:49:52;;;;;;;13.18;1.50;;;;;;;;;;5052664;28;20049;-77
2022/01/20 05:52:19;;;;;;;9.85;1.50;;;;;;;;;;5050915;28;20040;-77
2022/01/20 05:54:45;;;;;;;8.55;1.30;;;;;;;;;;5068810;28;20547;-77
2022/01/20 05:57:11;;;;;;;18.73;1.70;;;;;;;;;;5068363;28;20040;-77
2022/01/20 05:59:38;;;;;;;11.85;1.63;;;;;;;;;;5069257;28;20377;-77
2022/01/20 06:02:12;;;;;;;17.55;2.22;;;;;;;;;;5068607;28;20040;-77
2022/01/20 06:04:38;;;;;;;12.85;1.98;;;;;;;;;;5052326;28;20438;-77
2022/01/20 06:07:04;;;;;;;10.73;1.70;;;;;;;;;;5052092;28;20097;-77
2022/01/20 06:09:30;;;;;;;9.52;1.50;;;;;;;;;;5068433;28;20050;-77
2022/01/20 06:11:56;;;;;;;13.60;1.90;;;;;;;;;;5068185;28;20238;-77
2022/01/20 06:14:28;;;;;;;9.77;1.35;;;;;;;;;;5068807;28;20052;-77
2022/01/20 06:16:54;;;;;;;11.10;1.40;;;;;;;;;;5051723;28;20123;-77
2022/01/20 06:19:20;;;;;;;14.02;1.73;;;;;;;;;;5068073;28;20095;-77
2022/01/20 06:21:47;;;;;;;8.25;1.45;;;;;;;;;;5068234;28;20123;-77
2022/01/20 06:24:14;;;;;;;11.07;1.70;;;;;;;;;;5068085;28;20114;-76
2022/01/20 06:26:40;;;;;;;11.60;1.25;;;;;;;;;;5068727;28;20052;-77
2022/01/20 06:29:09;;;;;;;8.90;1.42;;;;;;;;;;5067774;28;20036;-77
2022/01/20 06:31:35;;;;;;;10.65;1.27;;;;;;;;;;5068472;28;20492;-76
2022/01/20 06:34:01;;;;;;;10.60;1.77;;;;;;;;;;5068016;28;20060;-76
2022/01/20 06:36:27;;;;;;;15.05;2.38;;;;;;;;;;5051164;28;20051;-76
2022/01/20 06:38:54;;;;;;;11.93;2.25;;;;;;;;;;5068534;28;20657;-76
2022/01/20 06:41:20;;;;;;;12.85;1.80;;;;;;;;;;5050967;28;20040;-77
2022/01/20 06:43:46;;;;;;;6.93;1.63;;;;;;;;;;5068314;28;20039;-76
2022/01/20 06:46:12;;;;;;;11.82;2.40;;;;;;;;;;5051024;28;20083;-76
2022/01/20 06:48:38;;;;;;;12.88;2.00;;;;;;;;;;5068195;28;20134;-76
2022/01/20 06:51:04;;;;;;;12.40;2.40;;;;;;;;;;5067834;28;20103;-76
2022/01/20 06:53:30;;;;;;;12.55;2.20;;;;;;;;;;5050923;28;20044;-76
2022/01/20 06:55:56;;;;;;;12.05;1.75;;;;;;;;;;5051366;28;20412;-76
2022/01/20 06:58:23;;;;;;;7.78;1.85;;;;;;;;;;5050875;28;20110;-76
2022/01/20 07:00:49;;;;;;;9.43;2.10;;;;;;;;;;5051208;28;20098;-77
2022/01/20 07:03:16;;;;;;;9.07;1.70;;;;;;;;;;5050613;28;20033;-77
2022/01/20 07:05:42;;;;;;;8.52;2.22;;;;;;;;;;5068029;28;20458;-76
2022/01/20 07:08:08;;;;;;;16.33;1.48;;;;;;;;;;5067519;28;20045;-76
2022/01/20 07:10:34;;;;;;;10.00;1.92;;;;;;;;;;5051569;28;20048;-77
2022/01/20 07:13:00;;;;;;;12.30;1.95;;;;;;;;;;5067435;28;20165;-76
2022/01/20 07:15:26;;;;;;;13.10;1.48;;;;;;;;;;5050645;28;20078;-77
2022/01/20 07:17:52;;;;;;;12.20;1.73;;;;;;;;;;5034627;28;20404;-77
2022/01/20 07:20:18;;;;;;;15.52;1.95;;;;;;;;;;5068665;28;20040;-76
2022/01/20 07:22:45;;;;;;;11.05;1.73;;;;;;;;;;5067826;28;20477;-76
2022/01/20 07:25:11;;;;;;;13.75;1.80;;;;;;;;;;5067849;28;20047;-76
2022/01/20 07:27:37;;;;;;;8.45;1.55;;;;;;;;;;5050891;28;20093;-77
2022/01/20 07:30:03;;;;;;;13.95;1.90;;;;;;;;;;5067974;28;20134;-77
2022/01/20 07:32:29;;;;;;;18.52;2.28;;;;;;;;;;5066822;28;20055;-77
2022/01/20 07:34:55;;;;;;;17.15;2.60;;;;;;;;;;5067609;28;20048;-77
2022/01/20 07:37:21;;;;;;;10.27;1.80;;;;;;;;;;5067131;28;20102;-77
2022/01/20 07:39:47;;;;;;;17.38;2.00;;;;;;;;;;5052247;28;20044;-77
2022/01/20 07:42:14;;;;;;;17.17;2.65;;;;;;;;;;5054375;28;20048;-77
2022/01/20 07:44:40;;;;;;;15.48;2.53;;;;;;;;;;5071688;28;20086;-76
2022/01/20 07:47:06;;;;;;;9.98;2.10;;;;;;;;;;5071449;28;20557;-77
2022/01/20 07:49:32;;;;;;;14.68;2.47;;;;;;;;;;5054282;28;20098;-77
2022/01/20 07:51:58;;;;;;;12.18;2.85;;;;;;;;;;5072380;28;20037;-77
2022/01/20 07:54:24;;;;;;;11.40;2.00;;;;;;;;;;5070768;28;20044;-77
2022/01/20 07:56:51;;;;;;;14.40;1.85;;;;;;;;;;5054399;28;20052;-77
2022/01/20 07:59:17;;;;;;;15.05;2.00;;;;;;;;;;5054109;28;20051;-77
2022/01/20 08:01:44;;;;;;;20.52;2.40;;;;;;;;;;5054124;28;20036;-76
2022/01/20 08:04:10;;;;;;;16.63;2.20;;;;;;;;;;5071125;28;20476;-77
2022/01/20 08:06:36;;;;;;;18.90;2.45;;;;;;;;;;5071036;28;20106;-76
2022/01/20 08:09:02;;;;;;;12.50;2.60;;;;;;;;;;5070623;28;20055;-76
2022/01/20 08:11:28;;;;;;;12.23;2.38;;;;;;;;;;5070504;28;20036;-76
2022/01/20 08:13:55;;;;;;;19.50;2.80;;;;;;;;;;5070880;28;20052;-76
2022/01/20 08:16:22;;;;;;;15.05;2.80;;;;;;;;;;5070067;28;20075;-76
2022/01/20 08:18:48;;;;;;;17.42;2.92;;;;;;;;;;5072202;28;20040;-76
2022/01/20 08:21:14;;;;;;;12.45;2.28;;;;;;;;;;5070238;28;20036;-77
2022/01/20 08:23:40;;;;;;;17.42;2.40;;;;;;;;;;5070802;28;20048;-77
2022/01/20 08:26:06;;;;;;;19.05;3.05;;;;;;;;;;5053752;28;20049;-77
2022/01/20 08:28:32;;;;;;;17.20;2.75;;;;;;;;;;5070236;28;20056;-77
2022/01/20 08:30:58;;;;;;;14.20;2.08;;;;;;;;;;5070553;28;20048;-77
2022/01/20 08:33:24;;;;;;;23.17;2.55;;;;;;;;;;5053551;28;20082;-77
2022/01/20 08:35:50;;;;;;;16.25;2.55;;;;;;;;;;5070662;28;20055;-77
2022/01/20 08:38:16;;;;;;;17.65;2.58;;;;;;;;;;5070127;28;20531;-77
2022/01/20 08:40:44;;;;;;;13.85;2.17;;;;;;;;;;5070339;28;20044;-77
2022/01/20 08:43:10;;;;;;;16.02;2.05;;;;;;;;;;5071595;28;20039;-77
2022/01/20 08:45:37;;;;;;;15.60;2.42;;;;;;;;;;5070336;28;20044;-77
2022/01/20 08:48:03;;;;;;;13.52;2.88;;;;;;;;;;5070420;28;20048;-77
2022/01/20 08:50:30;;;;;;;13.00;2.00;;;;;;;;;;5069321;28;20048;-77
2022/01/20 08:52:57;;;;;;;13.90;1.70;;;;;;;;;;5069879;28;20083;-77
2022/01/20 08:55:23;;;;;;;10.65;1.60;;;;;;;;;;5069267;28;20083;-77
2022/01/20 08:57:49;;;;;;;12.48;2.15;;;;;;;;;;5053578;28;20496;-77
2022/01/20 09:00:16;;;;;;;12.05;1.70;;;;;;;;;;5069791;28;20089;-77
2022/01/20 09:02:42;;;;;;;9.52;1.90;;;;;;;;;;5053368;28;20037;-77
2022/01/20 09:05:09;;;;;;;6.70;1.48;;;;;;;;;;5068948;28;20057;-77
2022/01/20 09:07:35;;;;;;;7.55;1.70;;;;;;;;;;5052668;28;20045;-77
2022/01/20 09:10:04;;;;;;;10.65;1.80;;;;;;;;;;5069555;28;20040;-77
2022/01/20 09:17:45;;;;;;;7.27;1.80;;;;;;;;;;5069872;28;20105;-77
2022/01/20 09:20:11;;;;;;;6.93;1.70;;;;;;;;;;5069882;28;20040;-77
2022/01/20 09:22:38;;;;;;;11.25;1.88;;;;;;;;;;5069464;28;20053;-77
2022/01/20 09:25:05;;;;;;;14.45;2.13;;;;;;;;;;5069198;28;20041;-77
2022/01/20 09:27:31;;;;;;;12.27;1.95;;;;;;;;;;5068661;28;20260;-77
2022/01/20 09:29:57;;;;;;;10.32;1.80;;;;;;;;;;5069344;28;20123;-77
2022/01/20 09:32:26;;;;;;;14.13;1.92;;;;;;;;;;5068979;28;20044;-76
2022/01/20 09:34:52;;;;;;;10.52;1.80;;;;;;;;;;5052515;28;20051;-77
2022/01/20 09:37:18;;;;;;;11.68;1.92;;;;;;;;;;5068786;28;20043;-77
2022/01/20 09:39:45;;;;;;;13.70;2.15;;;;;;;;;;5052299;28;20063;-77
2022/01/20 09:42:12;;;;;;;13.05;1.98;;;;;;;;;;5052511;28;20041;-77
2022/01/20 09:44:44;;;;;;;14.48;2.42;;;;;;;;;;5070615;28;20049;-77
2022/01/20 09:47:10;;;;;;;14.70;2.40;;;;;;;;;;5069407;28;20488;-77
2022/01/20 09:49:37;;;;;;;10.05;2.13;;;;;;;;;;5052528;28;20492;-77
2022/01/20 09:52:03;;;;;;;13.35;2.17;;;;;;;;;;5070080;28;20484;-77
2022/01/20 09:54:31;;;;;;;14.40;2.13;;;;;;;;;;5068544;28;20048;-77
2022/01/20 09:56:59;;;;;;;9.68;1.88;;;;;;;;;;5068981;28;20036;-77
2022/01/20 09:59:26;;;;;;;13.07;2.10;;;;;;;;;;5068607;28;20515;-77
2022/01/20 10:01:57;;;;;;;10.10;1.90;;;;;;;;;;5068697;28;20560;-77
2022/01/20 10:04:27;;;;;;;8.15;1.83;;;;;;;;;;5067710;28;20098;-77
2022/01/20 10:06:53;;;;;;;13.63;1.92;;;;;;;;;;5068364;28;20110;-77
2022/01/20 10:09:27;;;;;;;11.35;1.83;;;;;;;;;;5068350;28;20126;-77
2022/01/20 10:11:53;;;;;;;13.20;2.15;;;;;;;;;;5068544;28;20052;-77
2022/01/20 10:14:19;;;;;;;12.15;1.73;;;;;;;;;;5068174;28;20087;-77
2022/01/20 10:16:45;;;;;;;10.65;1.73;;;;;;;;;;5068138;28;20076;-77
2022/01/20 10:19:22;;;;;;;10.82;2.22;;;;;;;;;;5068094;28;20051;-77
2022/01/20 10:21:48;;;;;;;7.18;1.95;;;;;;;;;;5068434;28;20098;-76
2022/01/20 10:24:14;;;;;;;11.90;1.92;;;;;;;;;;5051618;28;20476;-77
2022/01/20 10:26:40;;;;;;;13.43;1.90;;;;;;;;;;5035587;28;20373;-77
2022/01/20 10:29:08;;;;;;;12.68;2.22;;;;;;;;;;5068320;28;20048;-77
2022/01/20 10:31:34;;;;;;;11.63;2.17;;;;;;;;;;5067651;28;20048;-77
2022/01/20 10:34:00;;;;;;;13.05;2.95;;;;;;;;;;5068485;28;20117;-77
2022/01/20 10:36:26;;;;;;;14.70;2.45;;;;;;;;;;5051322;28;20052;-77
2022/01/20 10:38:53;;;;;;;12.98;2.10;;;;;;;;;;5068580;28;20049;-77
2022/01/20 10:41:37;;;;;;;10.63;2.25;;;;;;;;;;5067727;28;20033;-77
2022/01/20 10:44:17;;;;;;;16.40;2.28;;;;;;;;;;5068175;28;20496;-77
2022/01/20 10:46:48;;;;;;;12.25;2.08;;;;;;;;;;5067926;28;20049;-77
2022/01/20 10:49:14;;;;;;;8.95;1.80;;;;;;;;;;5067045;28;20105;-77
2022/01/20 10:51:41;;;;;;;11.30;3.17;;;;;;;;;;5069281;28;20044;-77
2022/01/20 10:54:10;;;;;;;10.25;2.65;;;;;;;;;;5069970;28;20055;-77
2022/01/20 10:56:47;;;;;;;13.88;2.00;;;;;;;;;;5050735;28;20102;-77
2022/01/20 10:59:16;;;;;;;10.57;2.45;;;;;;;;;;5067790;28;20072;-77
2022/01/20 11:01:42;;;;;;;10.52;2.42;;;;;;;;;;5068203;28;20047;-77
2022/01/20 11:04:09;;;;;;;11.98;2.10;;;;;;;;;;5068064;28;20094;-77
2022/01/20 11:06:39;;;;;;;9.80;1.95;;;;;;;;;;5050489;28;20052;-77
2022/01/20 11:09:08;;;;;;;9.25;1.88;;;;;;;;;;5051290;28;20083;-77
2022/01/20 11:11:34;;;;;;;13.55;2.00;;;;;;;;;;5067486;28;20040;-77
2022/01/20 11:14:00;;;;;;;10.63;2.20;;;;;;;;;;5069630;28;20503;-77
2022/01/20 11:16:27;;;;;;;20.23;3.25;;;;;;;;;;5054529;28;20036;-77
2022/01/20 11:18:53;;;;;;;13.88;2.00;;;;;;;;;;5072161;28;20044;-77
2022/01/20 11:21:23;;;;;;;11.85;1.70;;;;;;;;;;5071501;28;20103;-77
2022/01/20 11:23:49;;;;;;;9.57;1.90;;;;;;;;;;5072009;28;20556;-77
2022/01/20 11:26:16;;;;;;;9.63;2.30;;;;;;;;;;5070643;28;20040;-76
2022/01/20 11:28:57;;;;;;;15.13;2.35;;;;;;;;;;5071821;28;20048;-76
2022/01/20 11:31:29;;;;;;;16.83;2.25;;;;;;;;;;5071226;28;20044;-77
2022/01/20 11:33:55;;;;;;;16.17;1.95;;;;;;;;;;5071875;28;20452;-77
2022/01/20 11:36:23;;;;;;;17.15;2.08;;;;;;;;;;5070769;28;20048;-77
2022/01/20 11:38:50;;;;;;;14.10;2.00;;;;;;;;;;5071707;28;20037;-77
2022/01/20 11:41:17;;;;;;;15.80;2.10;;;;;;;;;;5070889;28;20052;-77
2022/01/20 11:43:53;;;;;;;15.25;2.47;;;;;;;;;;5071600;28;20040;-77
2022/01/20 11:46:21;;;;;;;18.50;2.78;;;;;;;;;;5070921;28;20051;-77
2022/01/20 11:49:01;;;;;;;14.30;2.05;;;;;;;;;;5071031;28;20040;-77
2022/01/20 11:51:43;;;;;;;16.55;2.30;;;;;;;;;;5054112;28;20048;-77
2022/01/20 11:54:09;;;;;;;12.05;1.88;;;;;;;;;;5055016;28;20110;-77
2022/01/20 11:56:40;;;;;;;12.90;2.08;;;;;;;;;;5070619;28;20051;-77
2022/01/20 11:59:07;;;;;;;15.13;2.45;;;;;;;;;;5071895;28;20396;-77
2022/01/20 12:01:48;;;;;;;14.77;2.10;;;;;;;;;;5053519;28;20045;-77
2022/01/20 12:04:14;;;;;;;14.98;1.98;;;;;;;;;;5071220;28;20419;-77
2022/01/20 12:06:44;;;;;;;9.88;1.70;;;;;;;;;;5070032;28;20052;-77
2022/01/20 12:09:10;;;;;;;8.68;1.90;;;;;;;;;;5070755;28;20041;-77
2022/01/20 12:11:37;;;;;;;16.58;2.45;;;;;;;;;;5070529;28;20037;-77
2022/01/20 12:14:04;;;;;;;10.20;1.58;;;;;;;;;;5070480;28;20092;-77
2022/01/20 12:16:30;;;;;;;8.32;1.42;;;;;;;;;;5070031;28;20048;-77
2022/01/20 12:18:57;;;;;;;10.80;1.50;;;;;;;;;;5070899;28;20036;-77
2022/01/20 12:21:24;;;;;;;7.75;1.48;;;;;;;;;;5053858;28;20515;-77
2022/01/20 12:23:52;;;;;;;17.20;1.85;;;;;;;;;;5054406;28;20400;-77
2022/01/20 12:26:19;;;;;;;9.88;1.80;;;;;;;;;;5069304;28;20040;-77
2022/01/20 12:28:45;;;;;;;9.50;1.98;;;;;;;;;;5070471;28;20037;-77
2022/01/20 12:31:14;;;;;;;12.52;1.98;;;;;;;;;;5070621;28;20041;-77
2022/01/20 12:33:47;;;;;;;16.77;2.00;;;;;;;;;;5070206;28;20044;-77
2022/01/20 12:36:14;;;;;;;13.85;1.88;;;;;;;;;;5053898;28;20036;-77
2022/01/20 12:38:41;;;;;;;11.68;2.00;;;;;;;;;;5071528;28;20042;-77
2022/01/20 12:41:23;;;;;;;12.73;2.00;;;;;;;;;;5070304;28;20632;-76
2022/01/20 12:44:04;;;;;;;12.98;1.75;;;;;;;;;;5070348;28;20062;-77
2022/01/20 12:46:31;;;;;;;9.50;1.85;;;;;;;;;;5069885;28;20052;-77
2022/01/20 12:49:08;;;;;;;11.52;1.50;;;;;;;;;;5070264;28;20036;-77
2022/01/20 12:51:40;;;;;;;7.90;1.50;;;;;;;;;;5069725;28;20044;-77
2022/01/20 12:54:13;;;;;;;18.83;2.42;;;;;;;;;;5070243;28;20197;-77
2022/01/20 12:56:44;;;;;;;14.25;1.80;;;;;;;;;;5069614;28;20051;-77
2022/01/20 12:59:11;;;;;;;13.52;1.60;;;;;;;;;;5070445;28;20045;-77
2022/01/20 13:01:42;;;;;;;10.73;1.85;;;;;;;;;;5068763;28;20048;-77
2022/01/20 13:04:09;;;;;;;8.93;2.30;;;;;;;;;;5070180;28;20052;-77
2022/01/20 13:06:36;;;;;;;14.10;1.80;;;;;;;;;;5070472;28;20164;-76
2022/01/20 13:09:04;;;;;;;11.88;1.48;;;;;;;;;;5069731;28;20058;-77
2022/01/20 13:11:31;;;;;;;6.03;0.95;;;;;;;;;;5052964;28;20036;-77
2022/01/20 13:14:00;;;;;;;5.93;1.10;;;;;;;;;;5069737;28;20037;-77
2022/01/20 13:16:31;;;;;;;8.07;1.10;;;;;;;;;;5068854;28;20494;-77
2022/01/20 13:18:58;;;;;;;5.10;0.95;;;;;;;;;;5069853;28;20488;-77
2022/01/20 13:21:38;;;;;;;6.28;1.20;;;;;;;;;;5069244;28;20033;-77
2022/01/20 13:24:07;;;;;;;10.10;2.55;;;;;;;;;;5069865;28;20045;-77
2022/01/20 13:26:43;;;;;;;11.15;2.08;;;;;;;;;;5069448;28;20044;-77
2022/01/20 13:29:10;;;;;;;10.48;2.63;;;;;;;;;;5069521;28;20040;-77
2022/01/20 13:31:36;;;;;;;7.22;2.30;;;;;;;;;;5069136;28;20401;-77
2022/01/20 13:34:09;;;;;;;8.10;1.70;;;;;;;;;;5052816;28;20182;-77
2022/01/20 13:36:36;;;;;;;10.63;1.73;;;;;;;;;;5068717;28;20049;-76
2022/01/20 13:39:03;;;;;;;10.13;1.80;;;;;;;;;;5069343;28;20504;-76
2022/01/20 13:41:29;;;;;;;6.88;1.40;;;;;;;;;;5051912;28;20048;-76
2022/01/20 13:46:42;;;;;;;;;;;;;;;;;;5069169;28;20056;-77
2022/01/20 13:49:12;;;;;;;14.05;2.00;;;;;;;;;;5052049;28;20376;-76
2022/01/20 13:51:39;;;;;;;13.57;2.60;;;;;;;;;;5069771;28;20036;-77
2022/01/20 13:54:05;;;;;;;11.55;2.35;;;;;;;;;;5069063;28;20048;-77
2022/01/20 13:56:31;;;;;;;12.38;2.20;;;;;;;;;;5068263;28;20044;-77
2022/01/20 13:59:16;;;;;;;9.18;1.92;;;;;;;;;;5052133;28;20037;-77
2022/01/20 14:01:42;;;;;;;16.63;2.35;;;;;;;;;;5051962;28;20181;-77
2022/01/20 14:04:08;;;;;;;9.40;1.50;;;;;;;;;;5069951;28;20040;-77
2022/01/20 14:06:34;;;;;;;11.85;1.70;;;;;;;;;;5067639;28;20096;-77
2022/01/20 14:09:00;;;;;;;9.63;1.67;;;;;;;;;;5051518;28;20052;-78
2022/01/20 14:11:26;;;;;;;8.32;1.40;;;;;;;;;;5067801;28;20392;-77
2022/01/20 14:13:52;;;;;;;8.15;1.58;;;;;;;;;;5068720;28;20561;-77
2022/01/20 14:16:18;;;;;;;10.73;1.15;;;;;;;;;;5069781;28;20052;-77
2022/01/20 14:18:46;;;;;;;6.18;1.20;;;;;;;;;;5067836;28;20032;-77
2022/01/20 14:21:15;;;;;;;8.35;1.13;;;;;;;;;;5068748;28;20075;-77
2022/01/20 14:23:41;;;;;;;9.05;1.80;;;;;;;;;;5067968;28;20124;-76
2022/01/20 14:26:13;;;;;;;8.60;1.60;;;;;;;;;;5102461;28;20442;-77
2022/01/20 14:28:39;;;;;;;10.88;1.60;;;;;;;;;;5068277;28;20101;-77
2022/01/20 14:31:05;;;;;;;17.50;1.70;;;;;;;;;;5051739;28;20174;-77
2022/01/20 14:33:32;;;;;;;9.70;1.65;;;;;;;;;;5050723;28;20040;-76
2022/01/20 14:35:58;;;;;;;8.60;1.58;;;;;;;;;;5068255;28;20052;-77
2022/01/20 14:38:24;;;;;;;9.65;1.38;;;;;;;;;;5067621;28;20040;-77
2022/01/20 14:40:52;;;;;;;11.73;1.50;;;;;;;;;;5051905;28;20036;-77
2022/01/20 14:43:20;;;;;;;11.80;1.63;;;;;;;;;;5068097;28;20040;-77
2022/01/20 14:45:46;;;;;;;8.60;1.30;;;;;;;;;;5051409;28;20040;-77
2022/01/20 14:48:14;;;;;;;13.30;2.10;;;;;;;;;;5067296;28;20052;-77
2022/01/20 14:50:40;;;;;;;12.10;1.55;;;;;;;;;;5067620;28;20059;-77
2022/01/20 14:53:06;;;;;;;9.93;1.52;;;;;;;;;;5068247;28;20417;-77
2022/01/20 14:55:32;;;;;;;9.50;1.38;;;;;;;;;;5050836;28;20051;-78
2022/01/20 14:57:58;;;;;;;8.27;1.33;;;;;;;;;;5067815;28;20124;-78
2022/01/20 15:00:24;;;;;;;7.70;1.20;;;;;;;;;;5051252;28;20097;-77
2022/01/20 15:02:50;;;;;;;13.18;1.85;;;;;;;;;;5051354;28;20131;-77
2022/01/20 15:05:18;;;;;;;7.75;1.40;;;;;;;;;;5067829;28;20037;-77
2022/01/20 15:07:44;;;;;;;15.30;1.60;;;;;;;;;;5067634;28;20049;-77
2022/01/20 15:10:12;;;;;;;8.98;1.30;;;;;;;;;;5068135;28;20040;-77
2022/01/20 15:12:39;;;;;;;12.32;1.63;;;;;;;;;;5067678;28;20098;-77
2022/01/20 15:15:06;;;;;;;10.93;1.92;;;;;;;;;;5067546;28;20033;-77
2022/01/20 15:17:33;;;;;;;11.90;1.83;;;;;;;;;;5067180;28;20052;-77
2022/01/20 15:19:59;;;;;;;14.57;1.88;;;;;;;;;;5051187;28;20085;-77
2022/01/20 15:22:25;;;;;;;11.68;1.95;;;;;;;;;;5067312;28;20079;-77
2022/01/20 15:24:51;;;;;;;19.08;1.80;;;;;;;;;;5034883;28;20037;-78
2022/01/20 15:27:17;;;;;;;8.35;1.27;;;;;;;;;;5068167;28;20480;-77
2022/01/20 15:29:43;;;;;;;7.47;1.83;;;;;;;;;;5067339;28;20377;-77
2022/01/20 15:32:09;;;;;;;10.20;1.65;;;;;;;;;;5067338;28;20048;-77
2022/01/20 15:34:35;;;;;;;9.23;1.70;;;;;;;;;;5049732;28;20127;-77
2022/01/20 15:37:02;;;;;;;7.65;1.20;;;;;;;;;;5050878;28;20060;-77
2022/01/20 15:39:28;;;;;;;8.75;1.60;;;;;;;;;;5068552;28;20119;-77
2022/01/20 15:41:54;;;;;;;5.57;1.27;;;;;;;;;;5067521;28;20098;-77
2022/01/20 15:44:20;;;;;;;9.95;2.00;;;;;;;;;;5051002;28;20540;-77
2022/01/20 15:46:46;;;;;;;9.80;1.15;;;;;;;;;;5050778;28;20050;-77
2022/01/20 15:49:15;;;;;;;8.68;2.03;;;;;;;;;;5067497;28;20411;-77